createdAt,value
2022-09-21T00:01:37.855Z,11.51
2022-09-21T00:04:05.798Z,11.58
2022-09-21T00:06:34.480Z,11.59
2022-09-21T00:09:05.014Z,11.57
2022-09-21T00:11:35.584Z,11.47
2022-09-21T00:14:08.098Z,11.40
2022-09-21T00:16:38.068Z,11.46
2022-09-21T00:19:06.735Z,11.43
2022-09-21T00:21:34.783Z,11.42
2022-09-21T00:24:02.934Z,11.39
2022-09-21T00:26:31.324Z,11.34
2022-09-21T00:29:01.767Z,11.30
2022-09-21T00:31:31.298Z,11.36
2022-09-21T00:34:00.316Z,11.30
2022-09-21T00:36:28.503Z,11.35
2022-09-21T00:38:58.807Z,11.40
2022-09-21T00:41:27.277Z,11.42
2022-09-21T00:44:28.855Z,11.40
2022-09-21T00:47:01.722Z,11.28
2022-09-21T00:49:30.531Z,11.32
2022-09-21T00:51:59.304Z,11.19
2022-09-21T00:54:33.672Z,11.11
2022-09-21T00:57:02.983Z,11.19
2022-09-21T00:59:34.082Z,11.20
2022-09-21T01:02:01.986Z,11.24
2022-09-21T01:04:30.160Z,11.18
2022-09-21T01:07:00.928Z,11.12
2022-09-21T01:09:28.831Z,11.20
2022-09-21T01:12:15.119Z,11.20
2022-09-21T01:15:19.570Z,11.28
2022-09-21T01:17:52.872Z,11.28
2022-09-21T01:20:40.121Z,11.30
2022-09-21T01:23:42.856Z,11.35
2022-09-21T01:26:28.511Z,11.31
2022-09-21T01:29:01.754Z,11.30
2022-09-21T01:31:54.756Z,11.28
2022-09-21T01:34:39.182Z,11.10
2022-09-21T01:37:14.082Z,11.16
2022-09-21T01:39:46.887Z,11.19
2022-09-21T01:42:17.568Z,11.10
2022-09-21T01:44:47.658Z,11.16
2022-09-21T01:47:17.291Z,11.18
2022-09-21T01:49:53.398Z,11.07
2022-09-21T01:52:32.037Z,11.09
2022-09-21T01:55:08.023Z,11.05
2022-09-21T01:57:44.577Z,11.05
2022-09-21T02:00:12.698Z,11.01
2022-09-21T02:03:15.863Z,11.02
2022-09-21T02:05:43.736Z,10.97
2022-09-21T02:08:12.158Z,10.94
2022-09-21T02:10:48.419Z,10.88
2022-09-21T02:13:18.074Z,10.89
2022-09-21T02:15:58.295Z,10.85
2022-09-21T02:18:31.907Z,10.92
2022-09-21T02:21:04.044Z,10.96
2022-09-21T02:23:49.518Z,10.96
2022-09-21T02:26:25.931Z,10.95
2022-09-21T02:29:11.332Z,10.97
2022-09-21T02:31:52.297Z,10.85
2022-09-21T02:34:45.770Z,10.94
2022-09-21T02:37:16.230Z,10.93
2022-09-21T02:39:59.014Z,10.95
2022-09-21T02:42:36.874Z,10.90
2022-09-21T02:45:18.869Z,10.76
2022-09-21T02:47:52.213Z,10.72
2022-09-21T02:50:46.282Z,10.76
2022-09-21T02:53:19.074Z,10.80
2022-09-21T02:55:54.276Z,10.70
2022-09-21T02:58:27.155Z,10.70
2022-09-21T03:00:57.535Z,10.75
2022-09-21T03:03:26.363Z,10.65
2022-09-21T03:05:55.404Z,10.55
2022-09-21T03:08:22.928Z,10.53
2022-09-21T03:10:50.905Z,10.49
2022-09-21T03:13:19.028Z,10.46
2022-09-21T03:15:47.305Z,10.43
2022-09-21T03:18:15.234Z,10.45
2022-09-21T03:20:46.227Z,10.35
2022-09-21T03:23:14.570Z,10.43
2022-09-21T03:25:46.134Z,10.43
2022-09-21T03:28:15.008Z,10.39
2022-09-21T03:30:43.414Z,10.23
2022-09-21T03:33:12.938Z,10.23
2022-09-21T03:35:41.027Z,10.21
2022-09-21T03:38:08.894Z,10.10
2022-09-21T03:40:36.477Z,10.16
2022-09-21T03:43:04.388Z,10.08
2022-09-21T03:45:31.888Z,10.06
2022-09-21T03:48:00.536Z,10.06
2022-09-21T03:50:29.345Z,10.07
2022-09-21T03:52:57.376Z,9.99
2022-09-21T03:55:25.782Z,9.99
2022-09-21T03:57:53.264Z,10.00
2022-09-21T04:00:21.414Z,10.00
2022-09-21T04:02:48.966Z,9.91
2022-09-21T04:05:17.858Z,9.91
2022-09-21T04:07:45.962Z,9.91
2022-09-21T04:10:16.499Z,9.89
2022-09-21T04:12:44.958Z,9.94
2022-09-21T04:15:19.641Z,9.93
2022-09-21T04:17:51.099Z,9.87
2022-09-21T04:20:19.788Z,9.87
2022-09-21T04:22:47.716Z,9.88
2022-09-21T04:25:15.918Z,9.91
2022-09-21T04:27:43.728Z,9.97
2022-09-21T04:30:13.365Z,10.05
2022-09-21T04:32:40.938Z,10.02
2022-09-21T04:35:08.795Z,10.05
2022-09-21T04:37:36.464Z,10.18
2022-09-21T04:40:05.778Z,10.10
2022-09-21T04:42:33.691Z,10.30
2022-09-21T04:45:01.416Z,10.33
2022-09-21T04:47:32.208Z,10.35
2022-09-21T04:49:59.879Z,10.39
2022-09-21T04:52:27.384Z,10.39
2022-09-21T04:54:55.030Z,10.44
2022-09-21T04:57:22.720Z,10.49
2022-09-21T04:59:50.212Z,10.54
2022-09-21T05:02:17.902Z,10.52
2022-09-21T05:04:48.807Z,10.53
2022-09-21T05:07:18.728Z,10.45
2022-09-21T05:10:04.768Z,10.43
2022-09-21T05:12:34.252Z,10.50
2022-09-21T05:15:02.702Z,10.56
2022-09-21T05:17:32.976Z,10.56
2022-09-21T05:20:00.610Z,10.41
2022-09-21T05:22:28.484Z,10.41
2022-09-21T05:24:55.981Z,10.52
2022-09-21T05:27:23.500Z,10.61
2022-09-21T05:29:51.415Z,10.68
2022-09-21T05:32:55.029Z,10.65
2022-09-21T05:35:38.120Z,10.70
2022-09-21T05:38:13.762Z,10.79
2022-09-21T05:40:41.883Z,10.75
2022-09-21T05:43:11.351Z,10.82
2022-09-21T05:45:47.749Z,10.95
2022-09-21T05:48:23.885Z,11.17
2022-09-21T05:51:05.174Z,11.28
2022-09-21T05:53:50.856Z,11.40
2022-09-21T05:56:21.434Z,11.56
2022-09-21T05:59:16.407Z,11.58
2022-09-21T06:02:18.636Z,11.74
2022-09-21T06:04:47.970Z,11.94
2022-09-21T06:07:15.647Z,12.06
2022-09-21T06:09:43.390Z,12.29
2022-09-21T06:12:11.514Z,12.34
2022-09-21T06:14:41.130Z,12.25
2022-09-21T06:17:11.974Z,12.21
2022-09-21T06:19:39.869Z,12.37
2022-09-21T06:22:07.662Z,12.67
2022-09-21T06:24:35.663Z,12.96
2022-09-21T06:27:06.235Z,13.36
2022-09-21T06:29:34.072Z,13.19
2022-09-21T06:32:05.026Z,12.72
2022-09-21T06:34:32.888Z,12.41
2022-09-21T06:37:00.751Z,12.37
2022-09-21T06:39:28.458Z,12.63
2022-09-21T06:41:56.680Z,12.85
2022-09-21T06:44:24.242Z,12.70
2022-09-21T06:46:51.685Z,12.45
2022-09-21T06:49:19.317Z,12.26
2022-09-21T06:51:48.550Z,12.17
2022-09-21T06:54:16.560Z,12.19
2022-09-21T06:56:44.384Z,12.13
2022-09-21T06:59:11.968Z,12.11
2022-09-21T07:01:39.558Z,11.96
2022-09-21T07:04:09.495Z,11.83
2022-09-21T07:06:37.447Z,11.76
2022-09-21T07:11:53.026Z,11.70
2022-09-21T07:14:22.594Z,11.65
2022-09-21T07:16:50.521Z,11.63
2022-09-21T07:19:19.340Z,11.68
2022-09-21T07:21:47.567Z,11.71
2022-09-21T07:24:15.305Z,11.72
2022-09-21T07:26:42.783Z,11.72
2022-09-21T07:29:10.310Z,11.76
2022-09-21T07:31:38.546Z,11.85
2022-09-21T07:34:06.150Z,11.92
2022-09-21T07:36:33.688Z,12.00
2022-09-21T07:39:03.093Z,12.07
2022-09-21T07:41:30.744Z,12.07
2022-09-21T07:43:58.214Z,12.22
2022-09-21T07:46:25.919Z,12.51
2022-09-21T07:48:55.122Z,13.07
2022-09-21T07:51:24.996Z,14.63
2022-09-21T07:53:59.598Z,14.66
2022-09-21T07:56:27.125Z,13.92
2022-09-21T07:59:06.866Z,13.52
2022-09-21T08:01:41.796Z,13.05
2022-09-21T08:04:11.015Z,13.09
2022-09-21T08:06:40.413Z,13.03
2022-09-21T08:09:08.819Z,12.92
2022-09-21T08:11:37.782Z,12.80
2022-09-21T08:14:05.536Z,12.73
2022-09-21T08:16:34.003Z,12.41
2022-09-21T08:19:03.264Z,12.56
2022-09-21T08:21:30.969Z,12.48
2022-09-21T08:23:58.592Z,12.60
2022-09-21T08:26:26.374Z,12.92
2022-09-21T08:28:56.602Z,12.72
2022-09-21T08:31:24.868Z,12.52
2022-09-21T08:33:55.209Z,12.59
2022-09-21T08:36:23.106Z,12.44
2022-09-21T08:38:50.993Z,12.47
2022-09-21T08:41:42.958Z,12.70
2022-09-21T08:44:33.457Z,12.81
2022-09-21T08:47:12.972Z,12.70
2022-09-21T08:49:46.399Z,12.75
2022-09-21T08:52:17.546Z,12.72
2022-09-21T08:54:51.036Z,12.57
2022-09-21T08:57:20.161Z,12.63
2022-09-21T08:59:50.040Z,12.79
2022-09-21T09:02:48.510Z,12.87
2022-09-21T09:05:36.605Z,12.91
2022-09-21T09:08:13.211Z,13.00
2022-09-21T09:10:43.760Z,13.19
2022-09-21T09:13:26.580Z,13.26
2022-09-21T09:16:24.710Z,13.28
2022-09-21T09:19:00.709Z,13.02
2022-09-21T09:21:38.396Z,12.98
2022-09-21T09:24:11.576Z,13.09
2022-09-21T09:26:45.040Z,12.98
2022-09-21T09:29:15.616Z,13.03
2022-09-21T09:31:44.785Z,12.95
2022-09-21T09:34:17.916Z,13.07
2022-09-21T09:36:59.151Z,13.26
2022-09-21T09:39:30.791Z,13.31
2022-09-21T09:42:24.553Z,13.19
2022-09-21T09:45:13.604Z,13.11
2022-09-21T09:48:20.315Z,13.13
2022-09-21T09:50:47.882Z,13.14
2022-09-21T09:53:22.414Z,13.21
2022-09-21T09:55:52.633Z,13.26
2022-09-21T09:58:42.168Z,13.29
2022-09-21T10:01:09.884Z,13.23
2022-09-21T10:03:38.503Z,13.19
2022-09-21T10:06:12.871Z,13.13
2022-09-21T10:08:47.323Z,13.05
2022-09-21T10:11:16.836Z,13.00
2022-09-21T10:13:49.383Z,13.01
2022-09-21T10:16:24.096Z,13.10
2022-09-21T10:18:59.027Z,13.13
2022-09-21T10:21:34.696Z,13.21
2022-09-21T10:24:06.862Z,13.21
2022-09-21T10:26:44.241Z,13.25
2022-09-21T10:29:23.907Z,13.26
2022-09-21T10:32:01.681Z,13.29
2022-09-21T10:34:31.786Z,13.31
2022-09-21T10:37:02.916Z,13.25
2022-09-21T10:39:34.456Z,13.16
2022-09-21T10:42:22.258Z,13.10
2022-09-21T10:45:04.873Z,13.11
2022-09-21T10:47:32.316Z,13.22
2022-09-21T10:50:03.175Z,13.27
2022-09-21T10:52:38.233Z,12.89
2022-09-21T10:55:08.472Z,12.88
2022-09-21T10:57:41.365Z,13.04
2022-09-21T11:00:22.549Z,13.17
2022-09-21T11:02:50.959Z,13.41
2022-09-21T11:05:25.489Z,13.33
2022-09-21T11:08:00.239Z,13.38
2022-09-21T11:10:44.440Z,13.34
2022-09-21T11:13:26.741Z,13.25
2022-09-21T11:16:04.477Z,13.23
2022-09-21T11:18:49.195Z,13.31
2022-09-21T11:22:02.540Z,13.33
2022-09-21T11:25:22.430Z,13.33
2022-09-21T11:28:01.599Z,13.34
2022-09-21T11:30:38.554Z,13.24
2022-09-21T11:33:39.685Z,13.28
2022-09-21T11:36:34.978Z,13.36
2022-09-21T11:39:08.785Z,13.38
2022-09-21T11:42:14.895Z,13.37
2022-09-21T11:45:22.574Z,13.21
2022-09-21T11:48:16.789Z,13.24
2022-09-21T11:51:09.981Z,13.21
2022-09-21T11:53:46.925Z,13.23
2022-09-21T11:56:34.143Z,13.20
2022-09-21T11:59:35.653Z,13.17
2022-09-21T12:05:35.813Z,13.18
2022-09-21T12:08:47.733Z,13.08
2022-09-21T12:11:16.219Z,13.10
2022-09-21T12:14:01.562Z,13.07
2022-09-21T12:16:37.982Z,13.05
2022-09-21T12:19:14.333Z,13.11
2022-09-21T12:21:49.818Z,13.19
2022-09-21T12:24:22.247Z,13.26
2022-09-21T12:27:00.659Z,13.30
2022-09-21T12:29:38.242Z,13.36
2022-09-21T12:32:34.739Z,13.30
2022-09-21T12:35:05.576Z,13.14
2022-09-21T12:37:45.153Z,13.06
2022-09-21T12:40:19.438Z,12.84
2022-09-21T12:42:52.353Z,12.93
2022-09-21T12:45:25.514Z,13.04
2022-09-21T12:48:03.839Z,13.14
2022-09-21T12:50:40.930Z,13.06
2022-09-21T12:53:19.000Z,12.96
2022-09-21T12:55:56.958Z,12.81
2022-09-21T12:58:42.789Z,12.79
2022-09-21T13:01:37.981Z,12.78
2022-09-21T13:04:49.967Z,12.77
2022-09-21T13:07:46.365Z,12.79
2022-09-21T13:10:40.011Z,12.84
2022-09-21T13:13:19.541Z,13.10
2022-09-21T13:15:50.783Z,13.21
2022-09-21T13:18:32.502Z,13.24
2022-09-21T13:21:17.571Z,13.28
2022-09-21T13:24:02.019Z,13.32
2022-09-21T13:26:41.645Z,13.23
2022-09-21T13:29:21.536Z,13.26
2022-09-21T13:32:14.040Z,13.18
2022-09-21T13:34:43.693Z,13.07
2022-09-21T13:37:14.434Z,12.90
2022-09-21T13:40:13.004Z,12.92
2022-09-21T13:42:47.987Z,12.85
2022-09-21T13:45:15.675Z,12.83
2022-09-21T13:47:45.892Z,12.70
2022-09-21T13:50:31.505Z,12.66
2022-09-21T13:53:05.510Z,12.50
2022-09-21T13:55:40.169Z,12.54
2022-09-21T13:58:34.107Z,12.48
2022-09-21T14:01:03.528Z,12.52
2022-09-21T14:03:31.049Z,12.53
2022-09-21T14:06:09.013Z,12.53
2022-09-21T14:08:48.797Z,12.54
2022-09-21T14:11:23.984Z,12.53
2022-09-21T14:14:18.426Z,12.42
2022-09-21T14:16:58.331Z,12.47
2022-09-21T14:19:30.530Z,12.46
2022-09-21T14:22:04.116Z,12.47
2022-09-21T14:24:45.125Z,12.38
2022-09-21T14:27:41.143Z,12.40
2022-09-21T14:30:24.303Z,12.42
2022-09-21T14:33:01.129Z,12.41
2022-09-21T14:35:40.094Z,12.45
2022-09-21T14:38:35.571Z,12.39
2022-09-21T14:41:13.872Z,12.36
2022-09-21T14:43:52.249Z,12.33
2022-09-21T14:46:55.026Z,12.36
2022-09-21T14:49:40.497Z,12.31
2022-09-21T14:52:32.319Z,12.34
2022-09-21T14:55:15.866Z,12.33
2022-09-21T14:57:58.331Z,12.34
2022-09-21T15:00:39.802Z,12.34
2022-09-21T15:03:24.670Z,12.29
2022-09-21T15:06:22.263Z,12.26
2022-09-21T15:09:26.331Z,12.20
2022-09-21T15:12:03.006Z,12.15
2022-09-21T15:14:40.370Z,12.15
2022-09-21T15:17:29.903Z,12.10
2022-09-21T15:20:01.399Z,12.00
2022-09-21T15:22:29.273Z,12.03
2022-09-21T15:25:02.626Z,11.99
2022-09-21T15:27:33.370Z,11.91
2022-09-21T15:30:05.453Z,11.93
2022-09-21T15:32:42.479Z,11.92
2022-09-21T15:35:16.207Z,11.87
2022-09-21T15:37:45.771Z,11.82
2022-09-21T15:40:26.578Z,11.78
2022-09-21T15:43:04.773Z,11.78
2022-09-21T15:45:47.781Z,11.77
2022-09-21T15:48:15.263Z,11.74
2022-09-21T15:50:46.447Z,11.70
2022-09-21T15:53:26.447Z,11.65
2022-09-21T15:55:54.358Z,11.63
2022-09-21T15:58:35.788Z,11.62
2022-09-21T16:01:12.619Z,11.62
2022-09-21T16:03:41.236Z,11.55
2022-09-21T16:06:25.506Z,11.54
2022-09-21T16:08:53.895Z,11.52
2022-09-21T16:11:27.460Z,11.49
2022-09-21T16:14:27.612Z,11.44
2022-09-21T16:17:11.539Z,11.39
2022-09-21T16:19:54.027Z,11.34
2022-09-21T16:22:38.556Z,11.23
2022-09-21T16:25:34.724Z,11.24
2022-09-21T16:28:26.352Z,11.10
2022-09-21T16:30:56.353Z,11.08
2022-09-21T16:33:41.455Z,11.04
2022-09-21T16:36:34.053Z,10.89
2022-09-21T16:39:06.317Z,10.87
2022-09-21T16:41:35.134Z,10.81
2022-09-21T16:44:03.489Z,10.80
2022-09-21T16:46:35.476Z,10.74
2022-09-21T16:49:04.095Z,10.61
2022-09-21T16:51:32.253Z,10.59
2022-09-21T16:54:00.073Z,10.60
2022-09-21T16:56:27.657Z,10.52
2022-09-21T16:58:57.200Z,10.55
2022-09-21T17:01:26.878Z,10.52
2022-09-21T17:03:54.641Z,10.61
2022-09-21T17:06:22.869Z,10.64
2022-09-21T17:08:51.334Z,10.70
2022-09-21T17:11:20.331Z,10.69
2022-09-21T17:13:48.497Z,10.82
2022-09-21T17:16:18.356Z,10.75
2022-09-21T17:18:52.037Z,10.72
2022-09-21T17:21:19.655Z,10.68
2022-09-21T17:23:47.311Z,10.68
2022-09-21T17:26:21.224Z,10.61
2022-09-21T17:28:48.995Z,10.43
2022-09-21T17:31:16.921Z,10.46
2022-09-21T17:33:47.803Z,10.41
2022-09-21T17:36:16.483Z,10.35
2022-09-21T17:38:44.958Z,10.32
2022-09-21T17:41:23.556Z,10.30
2022-09-21T17:44:18.592Z,10.28
2022-09-21T17:46:58.336Z,10.28
2022-09-21T17:49:26.423Z,10.23
2022-09-21T17:52:16.959Z,10.23
2022-09-21T17:54:45.099Z,10.07
2022-09-21T17:57:41.093Z,10.00
2022-09-21T18:00:20.317Z,10.02
2022-09-21T18:02:48.530Z,10.01
2022-09-21T18:05:25.054Z,9.94
2022-09-21T18:07:53.352Z,9.88
2022-09-21T18:10:23.727Z,9.78
2022-09-21T18:13:14.247Z,9.75
2022-09-21T18:15:56.732Z,9.83
2022-09-21T18:18:44.510Z,9.82
2022-09-21T18:21:24.838Z,9.77
2022-09-21T18:24:14.853Z,9.85
2022-09-21T18:26:43.124Z,9.84
2022-09-21T18:29:41.810Z,9.89
2022-09-21T18:32:31.524Z,10.07
2022-09-21T18:35:34.900Z,10.06
2022-09-21T18:38:15.727Z,10.13
2022-09-21T18:40:54.639Z,10.13
2022-09-21T18:43:36.989Z,10.18
2022-09-21T18:46:31.579Z,10.16
2022-09-21T18:49:05.623Z,10.17
2022-09-21T18:52:29.269Z,10.07
2022-09-21T18:54:57.506Z,10.05
2022-09-21T18:57:25.533Z,10.07
2022-09-21T18:59:53.303Z,10.02
2022-09-21T19:02:21.422Z,9.96
2022-09-21T19:04:49.757Z,9.98
2022-09-21T19:07:42.258Z,10.02
2022-09-21T19:10:32.792Z,9.95
2022-09-21T19:13:09.626Z,9.98
2022-09-21T19:16:11.757Z,9.99
2022-09-21T19:19:00.560Z,10.02
2022-09-21T19:21:57.509Z,10.00
2022-09-21T19:24:35.828Z,9.87
2022-09-21T19:27:28.172Z,9.82
2022-09-21T19:30:12.207Z,9.88
2022-09-21T19:32:58.401Z,9.85
2022-09-21T19:35:26.135Z,9.91
2022-09-21T19:37:59.593Z,9.97
2022-09-21T19:40:30.250Z,10.06
2022-09-21T19:43:22.596Z,9.93
2022-09-21T19:45:56.046Z,10.03
2022-09-21T19:48:27.840Z,10.07
2022-09-21T19:50:58.829Z,10.10
2022-09-21T19:53:45.181Z,10.10
2022-09-21T19:56:34.201Z,10.13
2022-09-21T19:59:20.765Z,10.17
2022-09-21T20:01:55.066Z,10.13
2022-09-21T20:04:36.708Z,10.15
2022-09-21T20:07:35.700Z,10.20
2022-09-21T20:10:27.331Z,10.12
2022-09-21T20:13:09.497Z,10.10
2022-09-21T20:16:07.423Z,10.12
2022-09-21T20:18:56.318Z,10.12
2022-09-21T20:21:27.549Z,10.07
2022-09-21T20:24:02.032Z,10.11
2022-09-21T20:26:36.463Z,10.17
2022-09-21T20:29:04.325Z,10.22
2022-09-21T20:31:32.180Z,10.23
2022-09-21T20:33:59.901Z,10.22
2022-09-21T20:36:28.965Z,10.26
2022-09-21T20:38:59.639Z,10.24
2022-09-21T20:41:27.384Z,10.24
2022-09-21T20:43:54.929Z,10.26
2022-09-21T20:46:22.677Z,10.24
2022-09-21T20:48:55.334Z,10.28
2022-09-21T20:51:22.966Z,10.29
2022-09-21T20:53:51.513Z,10.30
2022-09-21T20:56:19.034Z,10.34
2022-09-21T20:58:46.535Z,10.33
2022-09-21T21:01:14.132Z,10.33
2022-09-21T21:03:41.619Z,10.33
2022-09-21T21:06:14.390Z,10.29
2022-09-21T21:08:42.287Z,10.36
2022-09-21T21:11:10.846Z,10.37
2022-09-21T21:13:38.349Z,10.41
2022-09-21T21:16:11.551Z,10.42
2022-09-21T21:18:41.045Z,10.50
2022-09-21T21:21:09.357Z,10.49
2022-09-21T21:23:57.115Z,10.51
2022-09-21T21:26:43.775Z,10.56
2022-09-21T21:29:12.497Z,10.56
2022-09-21T21:31:40.217Z,10.56
2022-09-21T21:34:07.722Z,10.58
2022-09-21T21:36:35.173Z,10.62
2022-09-21T21:39:02.627Z,10.59
2022-09-21T21:41:31.547Z,10.59
2022-09-21T21:43:59.484Z,10.51
2022-09-21T21:46:27.852Z,10.51
2022-09-21T21:48:55.533Z,10.50
2022-09-21T21:51:23.121Z,10.52
2022-09-21T21:53:51.204Z,10.53
2022-09-21T21:56:20.298Z,10.52
2022-09-21T21:58:52.275Z,10.54
2022-09-21T22:01:25.284Z,10.54
2022-09-21T22:03:55.169Z,10.50
2022-09-21T22:06:23.741Z,10.45
2022-09-21T22:08:52.205Z,10.43
2022-09-21T22:11:21.310Z,10.40
2022-09-21T22:13:49.200Z,10.40
2022-09-21T22:16:19.203Z,10.39
2022-09-21T22:18:46.945Z,10.37
2022-09-21T22:21:17.527Z,10.38
2022-09-21T22:23:44.993Z,10.37
2022-09-21T22:26:15.861Z,10.36
2022-09-21T22:28:46.265Z,10.31
2022-09-21T22:31:21.387Z,10.28
2022-09-21T22:33:49.740Z,10.26
2022-09-21T22:36:20.083Z,10.24
2022-09-21T22:38:48.068Z,10.21
2022-09-21T22:41:18.053Z,10.19
2022-09-21T22:43:47.006Z,10.16
2022-09-21T22:46:18.118Z,10.13
2022-09-21T22:48:46.765Z,10.15
2022-09-21T22:51:16.197Z,10.13
2022-09-21T22:53:44.663Z,10.12
2022-09-21T22:56:14.953Z,10.06
2022-09-21T22:58:45.371Z,10.00
2022-09-21T23:01:20.542Z,9.97
2022-09-21T23:03:50.958Z,9.92
2022-09-21T23:06:20.814Z,9.91
2022-09-21T23:08:50.454Z,9.82
2022-09-21T23:11:26.975Z,9.80
2022-09-21T23:13:55.895Z,9.78
2022-09-21T23:16:24.896Z,9.68
2022-09-21T23:18:52.458Z,9.68
2022-09-21T23:21:22.758Z,9.67
2022-09-21T23:23:54.844Z,9.62
2022-09-21T23:26:24.479Z,9.58
2022-09-21T23:28:54.623Z,9.54
2022-09-21T23:31:23.302Z,9.46
2022-09-21T23:33:52.554Z,9.42
2022-09-21T23:36:21.065Z,9.38
2022-09-21T23:38:49.345Z,9.29
2022-09-21T23:41:22.574Z,9.25
2022-09-21T23:43:51.031Z,9.30
2022-09-21T23:46:24.647Z,9.22
2022-09-21T23:48:52.866Z,9.31
2022-09-21T23:51:20.921Z,9.28
2022-09-21T23:53:48.685Z,9.25
2022-09-21T23:56:19.395Z,9.21
2022-09-21T23:58:48.202Z,9.20
